Time;durP1;ratioP1;P1;durP2;ratioP2;P2;SDS_P1;SDS_P2;PMS_P1;PMS_P2;Temp;Humidity;BMP_temperature;BMP_pressure;BME280_temperature;BME280_humidity;BME280_pressure;Samples;Min_cycle;Max_cycle;Signal;HPM_P1;HPM_P2
2022/11/02 00:00:22;;;;;;;17.33;15.33;;;;;;;9.98;100.00;99926.06;5987507;23;20202;-88
2022/11/02 00:02:49;;;;;;;16.40;14.70;;;;;;;9.95;100.00;99925.63;5941495;23;20210;-87
2022/11/02 00:05:22;;;;;;;16.37;14.53;;;;;;;9.97;100.00;99931.63;5941826;23;20213;-88
2022/11/02 00:31:50;;;;;;;15.37;13.77;;;;;;;9.96;100.00;99940.69;6021048;23;20586;-87
2022/11/02 00:34:17;;;;;;;16.53;14.80;;;;;;;9.94;100.00;99940.03;6016008;23;20242;-88
2022/11/02 00:36:44;;;;;;;15.60;13.97;;;;;;;9.94;100.00;99951.59;5992816;23;20205;-86
2022/11/02 00:39:11;;;;;;;17.00;15.20;;;;;;;9.95;100.00;99950.56;5952267;23;20215;-89
2022/11/02 00:41:37;;;;;;;16.03;14.43;;;;;;;9.98;100.00;99950.16;5983208;23;20210;-89
2022/11/02 00:44:04;;;;;;;17.07;15.27;;;;;;;10.00;100.00;99947.25;5991753;23;20216;-88
2022/11/02 00:46:31;;;;;;;16.37;14.47;;;;;;;10.04;100.00;99945.81;5992456;23;20213;-88
2022/11/02 00:48:58;;;;;;;17.10;14.67;;;;;;;10.04;100.00;99940.44;5969386;23;20205;-89
2022/11/02 00:51:26;;;;;;;16.03;14.33;;;;;;;10.01;100.00;99928.31;5992415;23;20261;-89
2022/11/02 00:53:53;;;;;;;15.90;14.20;;;;;;;10.04;100.00;99935.09;5969168;23;20225;-90
2022/11/02 00:56:19;;;;;;;15.40;13.80;;;;;;;10.02;100.00;99932.66;5991618;23;20217;-88
2022/11/02 00:58:46;;;;;;;15.27;13.77;;;;;;;10.05;100.00;99929.53;5992302;23;20213;-88
2022/11/02 01:01:13;;;;;;;16.33;14.67;;;;;;;10.06;100.00;99927.69;5992698;23;20217;-89
2022/11/02 01:03:40;;;;;;;15.67;14.07;;;;;;;10.11;100.00;99930.56;5967825;23;20288;-89
2022/11/02 01:06:09;;;;;;;16.40;14.63;;;;;;;10.09;100.00;99925.41;6014908;23;20214;-89
2022/11/02 01:08:36;;;;;;;16.57;14.47;;;;;;;10.10;100.00;99918.22;5991916;23;20538;-88
2022/11/02 01:11:16;;;;;;;17.50;15.47;;;;;;;10.08;100.00;99923.75;5968620;23;20209;-89
2022/11/02 01:13:43;;;;;;;15.43;13.87;;;;;;;10.10;100.00;99921.72;5968781;23;20215;-89
2022/11/02 01:16:10;;;;;;;15.70;14.00;;;;;;;10.12;100.00;99921.50;5989754;23;20205;-88
2022/11/02 01:18:37;;;;;;;15.90;14.20;;;;;;;10.10;100.00;99918.22;5991997;23;20257;-90
2022/11/02 01:21:05;;;;;;;15.87;14.20;;;;;;;10.06;100.00;99915.13;5992020;23;20210;-89
2022/11/02 01:23:33;;;;;;;15.87;14.20;;;;;;;10.08;100.00;99923.75;5991680;23;20233;-88
2022/11/02 01:26:05;;;;;;;15.50;13.90;;;;;;;10.09;100.00;99920.06;5991239;23;20284;-87
2022/11/02 01:28:32;;;;;;;16.23;14.40;;;;;;;10.06;100.00;99920.50;5991487;23;20233;-88
2022/11/02 01:30:59;;;;;;;14.90;13.40;;;;;;;10.06;100.00;99925.00;5992110;23;20215;-90
2022/11/02 01:33:27;;;;;;;15.53;14.03;;;;;;;10.06;100.00;99927.69;5992852;23;20276;-89
2022/11/02 01:35:54;;;;;;;15.93;14.27;;;;;;;10.04;100.00;99924.38;5969726;23;20211;-88
2022/11/02 01:38:22;;;;;;;15.43;13.90;;;;;;;10.03;100.00;99926.25;5992701;23;20292;-90
2022/11/02 01:40:49;;;;;;;17.47;14.10;;;;;;;10.00;100.00;99915.97;5994125;23;20248;-90
2022/11/02 01:43:22;;;;;;;15.57;13.97;;;;;;;10.01;100.00;99920.28;5971032;23;20696;-90
2022/11/02 04:43:40;;;;;;;14.23;12.83;;;;;;;9.90;100.00;99987.00;6032936;23;20216;-87
2022/11/02 04:46:07;;;;;;;14.20;12.70;;;;;;;9.94;100.00;99991.72;5997649;23;20213;-87
2022/11/02 04:48:34;;;;;;;14.57;12.97;;;;;;;9.93;100.00;99987.44;5993784;23;20213;-87
2022/11/02 04:51:01;;;;;;;14.13;12.67;;;;;;;9.96;100.00;99988.84;5992867;23;20224;-88
2022/11/02 04:53:28;;;;;;;14.67;13.27;;;;;;;9.99;100.00;99993.78;6015566;23;20245;-87
2022/11/02 04:55:56;;;;;;;13.43;12.13;;;;;;;10.02;100.00;99993.38;6013995;23;20667;-87
2022/11/02 04:58:23;;;;;;;16.43;13.20;;;;;;;10.02;100.00;99994.22;6013822;23;20540;-86
2022/11/02 05:00:50;;;;;;;14.40;13.00;;;;;;;10.02;100.00;99988.03;6040283;23;20210;-89
2022/11/02 05:03:16;;;;;;;13.83;12.43;;;;;;;10.05;100.00;99982.25;5991499;23;20213;-88
2022/11/02 05:05:43;;;;;;;14.23;12.80;;;;;;;10.02;100.00;99993.38;5991249;23;20213;-89
2022/11/02 05:11:00;;;;;;;13.40;12.03;;;;;;;10.01;100.00;99989.88;6011697;23;20278;-89
2022/11/02 05:13:27;;;;;;;14.30;12.70;;;;;;;10.05;100.00;100015.22;5966759;23;20270;-89
2022/11/02 05:15:58;;;;;;;14.33;12.57;;;;;;;10.01;100.00;100005.94;5966049;23;20221;-88
2022/11/02 05:18:26;;;;;;;13.93;12.60;;;;;;;10.04;100.00;100015.41;5940982;23;20208;-89
2022/11/02 05:20:55;;;;;;;14.60;13.10;;;;;;;10.08;100.00;100014.78;5986904;23;20218;-89
2022/11/02 05:23:25;;;;;;;15.47;12.57;;;;;;;10.08;100.00;100011.28;5963873;23;20285;-88
2022/11/02 05:29:09;;;;;;;13.77;12.13;;;;;;;10.07;100.00;100006.97;6017429;23;20222;-89
2022/11/02 05:31:36;;;;;;;14.00;12.50;;;;;;;10.03;100.00;100006.53;6017724;23;20244;-88
2022/11/02 05:34:03;;;;;;;13.83;12.27;;;;;;;10.03;100.00;100016.47;6014764;23;20220;-88
2022/11/02 05:36:30;;;;;;;14.23;12.77;;;;;;;10.07;100.00;100021.19;5990975;23;20727;-88
2022/11/02 05:38:57;;;;;;;14.73;13.17;;;;;;;10.05;100.00;100014.38;6014463;23;20718;-89
2022/11/02 05:41:25;;;;;;;14.50;13.00;;;;;;;10.03;100.00;100014.56;5991415;23;20210;-89
2022/11/02 05:43:54;;;;;;;14.30;12.80;;;;;;;9.99;100.00;100018.69;5968501;23;20210;-89
2022/11/02 05:46:22;;;;;;;14.80;13.13;;;;;;;10.00;100.00;100017.69;5991338;23;20206;-89
2022/11/02 05:48:49;;;;;;;13.80;12.40;;;;;;;9.93;100.00;100008.84;5991761;23;20205;-88
2022/11/02 05:51:16;;;;;;;15.27;13.33;;;;;;;9.91;100.00;100015.41;5991516;23;20209;-88
2022/11/02 05:53:42;;;;;;;13.77;12.37;;;;;;;9.92;100.00;100003.69;6014511;23;20271;-89
2022/11/02 05:56:10;;;;;;;14.40;12.27;;;;;;;9.90;100.00;100008.41;5990505;23;20245;-88
2022/11/02 05:58:37;;;;;;;15.13;12.87;;;;;;;9.90;100.00;100013.75;5968340;23;20211;-88
2022/11/02 06:01:05;;;;;;;17.13;12.73;;;;;;;9.93;100.00;100022.22;5968265;23;20217;-88
2022/11/02 06:03:32;;;;;;;13.80;12.37;;;;;;;9.85;100.00;100025.06;6014644;23;20220;-87
2022/11/02 06:06:09;;;;;;;13.60;12.20;;;;;;;9.83;100.00;100024.47;5968217;23;20689;-88
2022/11/02 06:08:39;;;;;;;14.00;12.60;;;;;;;9.83;100.00;100015.63;5967906;23;20225;-88
2022/11/02 06:11:08;;;;;;;14.20;12.80;;;;;;;9.83;100.00;100019.13;5978506;23;20213;-88
2022/11/02 06:13:35;;;;;;;14.40;12.90;;;;;;;9.84;100.00;100033.34;6031858;23;20291;-88
2022/11/02 06:16:04;;;;;;;14.47;12.93;;;;;;;9.77;100.00;100030.63;5989708;23;20217;-89
2022/11/02 06:18:30;;;;;;;14.13;12.07;;;;;;;9.80;100.00;100040.13;5991531;23;20262;-88
2022/11/02 06:20:58;;;;;;;13.80;12.07;;;;;;;9.83;100.00;100040.53;5991127;23;20268;-88
2022/11/02 06:23:25;;;;;;;12.87;11.53;;;;;;;9.81;100.00;100033.72;6014319;23;20213;-87
2022/11/02 06:25:54;;;;;;;12.93;11.57;;;;;;;9.77;100.00;100038.66;6014398;23;20219;-88
2022/11/02 06:28:21;;;;;;;15.70;12.17;;;;;;;9.80;100.00;100045.47;6013720;23;20219;-88
2022/11/02 06:30:48;;;;;;;13.27;11.90;;;;;;;9.78;100.00;100040.31;5991405;23;20253;-87
2022/11/02 06:33:16;;;;;;;12.97;11.60;;;;;;;9.84;100.00;100060.94;5991828;23;20293;-88
2022/11/02 06:55:50;;;;;;;13.83;12.40;;;;;;;10.34;100.00;100072.06;6019771;23;20237;-88
2022/11/02 06:58:17;;;;;;;14.90;13.40;;;;;;;10.46;100.00;100073.91;5987437;23;20213;-88
2022/11/02 07:00:44;;;;;;;13.53;12.13;;;;;;;10.57;100.00;100065.25;5961846;23;20301;-88
2022/11/02 07:03:10;;;;;;;15.10;13.20;;;;;;;10.66;100.00;100068.53;5987176;23;20691;-89
2022/11/02 07:05:37;;;;;;;14.20;12.63;;;;;;;10.78;100.00;100079.44;5994259;23;20225;-89
2022/11/02 07:08:04;;;;;;;14.23;12.83;;;;;;;10.91;100.00;100085.59;5990949;23;20222;-89
2022/11/02 07:10:31;;;;;;;14.13;12.17;;;;;;;11.03;100.00;100085.75;5964173;23;20219;-89
2022/11/02 07:12:58;;;;;;;14.17;12.33;;;;;;;11.19;100.00;100084.47;5991714;23;20211;-89
2022/11/02 07:15:25;;;;;;;13.20;11.90;;;;;;;11.29;100.00;100077.59;6015348;23;20220;-87
2022/11/02 07:17:52;;;;;;;15.57;12.63;;;;;;;11.38;100.00;100081.66;5992109;23;20217;-88
2022/11/02 07:20:19;;;;;;;13.37;12.13;;;;;;;11.47;100.00;100087.63;6014602;23;20215;-89
2022/11/02 07:22:56;;;;;;;13.57;12.17;;;;;;;11.59;100.00;100083.22;6014968;23;20206;-89
2022/11/02 07:25:24;;;;;;;14.17;12.63;;;;;;;11.62;100.00;100085.47;6040340;23;20217;-88
2022/11/02 07:27:51;;;;;;;14.10;12.03;;;;;;;11.69;100.00;100080.06;6014895;23;20210;-88
2022/11/02 07:30:18;;;;;;;13.17;11.87;;;;;;;11.73;100.00;100089.38;6014443;23;20206;-88
2022/11/02 07:32:45;;;;;;;12.10;10.70;;;;;;;11.79;100.00;100083.13;6014745;23;20214;-89
2022/11/02 07:35:14;;;;;;;12.50;11.07;;;;;;;11.84;100.00;100086.81;6014649;23;20590;-89
2022/11/02 07:37:41;;;;;;;12.50;11.40;;;;;;;11.96;100.00;100086.13;6014945;23;20210;-90
2022/11/02 07:40:09;;;;;;;12.53;11.00;;;;;;;12.05;100.00;100085.63;5968005;23;20211;-88
2022/11/02 07:42:42;;;;;;;12.77;11.57;;;;;;;12.16;100.00;100082.25;5990790;23;20220;-89
2022/11/02 07:45:10;;;;;;;12.53;11.33;;;;;;;12.24;100.00;100083.84;6014899;23;20233;-89
2022/11/02 07:47:47;;;;;;;13.00;11.70;;;;;;;12.28;100.00;100083.19;6039174;23;20220;-87
2022/11/02 07:50:16;;;;;;;12.87;11.67;;;;;;;12.39;100.00;100083.50;6014571;23;20195;-88
2022/11/02 07:52:48;;;;;;;12.20;11.00;;;;;;;12.44;100.00;100073.75;6014437;23;20218;-88
2022/11/02 07:55:17;;;;;;;13.37;11.17;;;;;;;12.51;100.00;100081.72;5991397;23;20688;-87
2022/11/02 07:57:57;;;;;;;12.57;11.40;;;;;;;12.60;100.00;100083.91;5990485;23;20534;-87
2022/11/02 08:00:26;;;;;;;12.63;10.80;;;;;;;12.67;100.00;100079.31;6014325;23;20211;-87
2022/11/02 08:02:56;;;;;;;12.37;11.17;;;;;;;12.74;100.00;100077.34;6014048;23;20202;-89
2022/11/02 08:05:24;;;;;;;11.80;10.67;;;;;;;12.77;100.00;100076.94;6014088;23;20216;-88
2022/11/02 08:08:00;;;;;;;12.33;11.13;;;;;;;12.86;100.00;100079.31;5991035;23;20219;-88
2022/11/02 08:10:29;;;;;;;11.70;10.47;;;;;;;12.88;100.00;100078.03;6014106;23;20214;-87
2022/11/02 08:13:04;;;;;;;14.03;10.57;;;;;;;13.01;100.00;100069.03;6039345;23;20245;-88
2022/11/02 08:15:31;;;;;;;11.80;10.57;;;;;;;13.07;100.00;100063.53;6014698;23;20215;-87
2022/11/02 08:18:19;;;;;;;12.37;10.80;;;;;;;13.18;100.00;100076.28;6014532;23;20209;-88
2022/11/02 08:20:46;;;;;;;13.50;10.90;;;;;;;13.36;100.00;100066.53;5990549;23;20205;-88
2022/11/02 08:23:15;;;;;;;12.27;11.07;;;;;;;13.59;100.00;100066.63;6014320;23;20219;-87
2022/11/02 08:25:44;;;;;;;11.70;10.53;;;;;;;13.96;100.00;100072.72;6039479;23;20228;-87
2022/11/02 08:28:19;;;;;;;11.67;10.47;;;;;;;14.33;100.00;100073.38;6013711;23;20216;-88
2022/11/02 08:30:46;;;;;;;12.03;10.77;;;;;;;14.49;100.00;100073.53;6014536;23;20217;-87
2022/11/02 08:33:15;;;;;;;10.77;9.60;;;;;;;14.69;100.00;100075.88;6013816;23;20551;-89
2022/11/02 08:35:43;;;;;;;11.57;10.40;;;;;;;14.88;100.00;100071.97;6012409;23;20237;-89
2022/11/02 08:38:10;;;;;;;12.10;9.83;;;;;;;15.14;100.00;100075.22;5990592;23;20270;-89
2022/11/02 08:40:37;;;;;;;10.90;9.60;;;;;;;15.31;100.00;100065.31;6014802;23;20221;-88
2022/11/02 08:43:06;;;;;;;10.63;9.60;;;;;;;15.42;100.00;100072.56;6039028;23;20244;-88
2022/11/02 08:45:33;;;;;;;11.27;9.93;;;;;;;15.60;100.00;100068.88;6014320;23;20240;-87
2022/11/02 08:48:20;;;;;;;11.27;10.07;;;;;;;15.69;100.00;100064.72;6017948;23;20210;-88
2022/11/02 08:50:47;;;;;;;12.33;9.73;;;;;;;15.72;100.00;100062.34;6013956;23;20659;-88
2022/11/02 08:53:13;;;;;;;10.23;9.27;;;;;;;15.62;100.00;100061.34;6038892;23;20292;-87
2022/11/02 08:55:40;;;;;;;10.47;9.47;;;;;;;15.53;100.00;100052.00;6038728;23;20216;-89
2022/11/02 08:58:07;;;;;;;10.67;9.57;;;;;;;15.56;100.00;100060.44;6038168;23;20214;-88
2022/11/02 09:00:34;;;;;;;10.57;9.57;;;;;;;15.73;100.00;100050.47;5994684;23;20214;-91
2022/11/02 09:03:03;;;;;;;12.20;10.33;;;;;;;16.07;100.00;100055.94;5974394;23;20244;-91
2022/11/02 09:05:33;;;;;;;10.80;9.70;;;;;;;16.13;100.00;100041.44;6014882;23;20241;-90
2022/11/02 09:08:02;;;;;;;10.60;9.50;;;;;;;16.21;100.00;100049.13;5990057;23;20261;-92
2022/11/02 09:10:30;;;;;;;11.93;10.17;;;;;;;16.29;100.00;100033.31;6014369;23;20954;-90
2022/11/02 09:13:02;;;;;;;11.13;9.83;;;;;;;16.35;100.00;100044.22;5968213;23;20213;-90
2022/11/02 09:15:29;;;;;;;11.60;10.47;;;;;;;16.51;100.00;100041.50;5991810;23;20240;-89
2022/11/02 09:17:56;;;;;;;10.80;9.70;;;;;;;16.49;100.00;100042.81;6014999;23;20214;-93
2022/11/02 09:20:23;;;;;;;9.80;8.80;;;;;;;16.52;100.00;100039.59;5991476;23;20710;-91
2022/11/02 09:22:50;;;;;;;9.33;8.50;;;;;;;16.58;100.00;100047.56;5968867;23;20214;-90
2022/11/02 09:25:17;;;;;;;9.80;8.87;;;;;;;16.60;100.00;100041.94;5968502;23;20217;-91
2022/11/02 09:27:44;;;;;;;9.77;8.80;;;;;;;16.61;100.00;100035.47;5991756;23;20220;-91
2022/11/02 09:30:11;;;;;;;9.37;8.40;;;;;;;16.69;100.00;100040.44;5991357;23;20218;-94
2022/11/02 09:32:38;;;;;;;10.77;8.43;;;;;;;16.81;100.00;100040.31;5991976;23;20213;-92
2022/11/02 09:35:09;;;;;;;10.10;8.70;;;;;;;16.89;100.00;100037.19;5991550;23;20226;-90
2022/11/02 09:37:36;;;;;;;10.07;8.37;;;;;;;16.99;100.00;100040.81;6015211;23;20580;-92
2022/11/02 09:40:04;;;;;;;10.60;8.07;;;;;;;17.09;100.00;100037.44;5991295;23;20213;-93
2022/11/02 09:42:39;;;;;;;9.10;7.87;;;;;;;17.40;100.00;100031.31;5992263;23;20205;-92
2022/11/02 09:45:07;;;;;;;9.30;7.50;;;;;;;17.52;100.00;100026.56;6015465;23;20214;-92
2022/11/02 09:47:41;;;;;;;9.83;7.80;;;;;;;17.61;100.00;100029.66;5991596;23;20214;-92
2022/11/02 09:50:46;;;;;;;9.33;7.13;;;;;;;17.66;100.00;100026.16;5976295;23;20216;-90
2022/11/02 09:53:18;;;;;;;8.17;7.30;;;;;;;17.79;100.00;100023.03;6015001;23;20214;-90
2022/11/02 09:55:53;;;;;;;7.40;6.70;;;;;;;17.86;100.00;100015.53;5968491;23;20268;-88
2022/11/02 09:58:28;;;;;;;7.47;6.60;;;;;;;17.91;100.00;100016.41;5991878;23;20209;-90
2022/11/02 10:00:56;;;;;;;7.67;6.30;;;;;;;17.92;100.00;100007.16;6015040;23;20206;-91
2022/11/02 10:03:34;;;;;;;6.87;6.10;;;;;;;18.03;100.00;100010.78;5992425;23;20277;-92
2022/11/02 10:06:15;;;;;;;7.13;5.17;;;;;;;18.07;100.00;100011.09;6014189;23;20211;-89
2022/11/02 10:09:11;;;;;;;7.40;6.07;;;;;;;18.07;100.00;100021.94;5991960;23;20212;-90
2022/11/02 10:11:51;;;;;;;6.93;6.27;;;;;;;18.21;100.00;100007.66;5967215;23;20262;-90
2022/11/02 10:14:34;;;;;;;7.50;5.90;;;;;;;18.33;100.00;100004.78;5990271;23;20211;-89
2022/11/02 10:17:12;;;;;;;5.27;4.03;;;;;;;18.46;100.00;100009.75;5991673;23;20925;-89
2022/11/02 10:19:42;;;;;;;4.50;3.80;;;;;;;18.48;100.00;100013.00;5991673;23;20303;-92
2022/11/02 10:22:14;;;;;;;4.20;3.50;;;;;;;18.65;100.00;100012.88;5990332;23;20219;-88
2022/11/02 10:24:42;;;;;;;3.07;1.80;;;;;;;18.89;100.00;99995.91;5991151;23;20283;-91
2022/11/02 10:27:27;;;;;;;3.93;1.50;;;;;;;19.20;100.00;99998.72;5991677;23;20215;-92
2022/11/02 10:30:06;;;;;;;5.90;1.40;;;;;;;19.26;100.00;100000.38;5970550;23;20238;-91
2022/11/02 10:32:34;;;;;;;2.83;1.10;;;;;;;19.48;94.75;99990.13;5970217;23;20265;-91
2022/11/02 10:35:45;;;;;;;2.03;1.03;;;;;;;19.57;92.35;99991.22;5970123;23;20214;-90
2022/11/02 10:39:08;;;;;;;4.97;1.10;;;;;;;19.70;89.37;99987.16;5926952;24;20656;-90
2022/11/02 10:41:44;;;;;;;2.17;1.10;;;;;;;19.84;87.84;99987.44;5993626;23;20215;-90
2022/11/02 10:44:25;;;;;;;2.73;1.40;;;;;;;19.94;85.87;99987.44;6016272;23;20211;-89
2022/11/02 10:47:21;;;;;;;1.70;1.00;;;;;;;20.01;84.26;99986.09;5993441;23;20216;-90
2022/11/02 10:50:21;;;;;;;2.70;1.00;;;;;;;20.13;82.93;99980.38;6016185;23;20676;-90
2022/11/02 10:52:48;;;;;;;2.97;1.10;;;;;;;20.26;82.23;99993.41;5992891;23;20658;-90
2022/11/02 10:55:28;;;;;;;1.43;1.00;;;;;;;20.22;81.18;99987.69;5987595;23;20218;-89
2022/11/02 10:57:57;;;;;;;2.10;1.70;;;;;;;20.30;87.56;99991.78;5991312;23;20209;-89
2022/11/02 11:00:33;;;;;;;4.10;2.20;;;;;;;20.28;93.09;99984.97;5992222;23;20208;-89
2022/11/02 11:03:07;;;;;;;3.83;1.80;;;;;;;20.21;93.11;99990.69;5993289;23;20219;-89
2022/11/02 11:05:55;;;;;;;3.83;2.00;;;;;;;20.29;90.21;100001.03;5993272;23;20211;-90
2022/11/02 11:08:30;;;;;;;2.10;1.30;;;;;;;20.18;83.85;99983.91;6005673;23;20210;-88
2022/11/02 11:11:10;;;;;;;2.17;1.30;;;;;;;20.34;81.94;99983.91;6016521;23;20211;-88
2022/11/02 11:13:37;;;;;;;2.33;1.20;;;;;;;20.32;80.23;99973.28;6016060;23;20831;-88
2022/11/02 11:16:39;;;;;;;1.40;0.97;;;;;;;20.31;77.73;99976.28;5995788;23;20223;-89
2022/11/02 11:19:35;;;;;;;2.97;1.03;;;;;;;20.15;78.78;99978.19;5993279;23;20245;-88
2022/11/02 11:22:19;;;;;;;2.80;1.10;;;;;;;20.03;77.91;99985.81;6014692;23;20205;-87
2022/11/02 11:24:46;;;;;;;3.23;1.30;;;;;;;19.93;79.25;99983.09;6015722;23;20235;-86
2022/11/02 11:27:17;;;;;;;2.23;1.30;;;;;;;19.95;78.12;99987.19;5992116;23;20234;-90
2022/11/02 11:29:53;;;;;;;1.87;1.30;;;;;;;19.73;79.44;99976.59;6015167;23;20295;-88
2022/11/02 11:32:24;;;;;;;2.13;1.30;;;;;;;19.74;77.01;99972.75;6015319;23;20267;-87
2022/11/02 11:35:00;;;;;;;2.80;1.33;;;;;;;19.90;75.40;99967.31;5993369;23;20214;-87
2022/11/02 11:37:27;;;;;;;2.50;1.23;;;;;;;19.78;75.54;99975.75;6016050;23;20195;-87
2022/11/02 11:40:03;;;;;;;3.10;1.00;;;;;;;19.74;73.66;99980.91;5992209;23;20212;-88
2022/11/02 11:42:36;;;;;;;3.37;1.20;;;;;;;19.59;74.68;99972.75;6014937;23;20210;-88
2022/11/02 11:45:16;;;;;;;2.30;1.20;;;;;;;19.65;72.59;99962.69;5969372;23;20210;-87
2022/11/02 11:47:43;;;;;;;3.30;1.20;;;;;;;19.54;73.14;99963.78;6015585;23;20215;-87
2022/11/02 11:50:16;;;;;;;2.33;1.00;;;;;;;19.45;71.84;99977.09;5991952;23;20223;-88
2022/11/02 11:53:21;;;;;;;3.60;1.13;;;;;;;19.43;72.39;99968.34;5994926;23;20207;-88
2022/11/02 11:56:24;;;;;;;3.37;1.00;;;;;;;19.48;71.49;99968.38;6015660;23;20286;-88
2022/11/02 11:58:51;;;;;;;2.47;1.00;;;;;;;19.53;72.44;99954.81;6036974;23;20203;-87
2022/11/02 12:01:18;;;;;;;2.30;1.10;;;;;;;19.61;72.00;99967.84;6039066;23;20211;-89
2022/11/02 12:03:50;;;;;;;1.90;1.10;;;;;;;19.81;71.01;99963.53;6014806;23;20271;-85
2022/11/02 12:06:28;;;;;;;3.10;1.20;;;;;;;19.91;71.39;99958.09;6014535;23;20216;-87
2022/11/02 12:09:02;;;;;;;4.97;1.73;;;;;;;20.06;71.48;99960.81;6013318;23;20249;-87
2022/11/02 12:11:40;;;;;;;2.07;1.30;;;;;;;19.95;69.54;99951.81;5992632;23;20209;-88
2022/11/02 12:14:23;;;;;;;1.17;0.93;;;;;;;20.14;67.98;99958.34;5991501;23;20221;-87
2022/11/02 12:17:12;;;;;;;2.07;1.13;;;;;;;20.04;67.13;99963.78;6039901;23;20216;-87
2022/11/02 12:19:48;;;;;;;2.50;1.10;;;;;;;20.09;67.63;99963.78;5998733;23;20218;-89
2022/11/02 12:22:52;;;;;;;3.00;1.23;;;;;;;20.05;66.60;99945.56;6039606;23;20219;-87
2022/11/02 12:25:24;;;;;;;2.47;1.10;;;;;;;20.12;68.54;99956.97;6015340;23;20291;-88
2022/11/02 12:27:58;;;;;;;2.43;1.10;;;;;;;20.23;67.51;99955.88;5991851;23;20239;-87
2022/11/02 12:30:49;;;;;;;2.53;1.30;;;;;;;20.23;67.63;99951.25;6014719;23;20212;-87
2022/11/02 12:33:26;;;;;;;2.43;1.20;;;;;;;20.07;69.18;99946.91;6014848;23;20235;-88
2022/11/02 12:36:21;;;;;;;2.67;1.20;;;;;;;20.07;69.23;99951.53;5992032;23;20224;-88
2022/11/02 12:39:03;;;;;;;3.27;1.20;;;;;;;20.02;69.56;99954.25;5995684;23;20218;-88
2022/11/02 12:41:50;;;;;;;3.47;1.40;;;;;;;20.02;69.37;99951.53;6015897;23;20698;-89
2022/11/02 12:44:34;;;;;;;2.40;1.23;;;;;;;20.04;69.07;99939.31;6039313;23;20216;-87
2022/11/02 12:47:13;;;;;;;2.10;1.10;;;;;;;19.67;70.96;99934.16;5968699;23;20214;-88
2022/11/02 12:50:08;;;;;;;1.47;1.37;;;;;;;19.76;70.04;99948.84;6039544;23;20243;-88
2022/11/02 12:52:50;;;;;;;2.27;1.37;;;;;;;19.60;70.93;99949.91;6001166;23;20218;-87
2022/11/02 12:55:23;;;;;;;2.47;1.30;;;;;;;19.52;70.09;99938.75;6014420;23;20243;-87
2022/11/02 12:57:51;;;;;;;2.40;1.20;;;;;;;19.42;69.27;99941.44;5991756;23;20251;-87
2022/11/02 13:00:19;;;;;;;2.20;1.20;;;;;;;19.31;69.72;99936.00;5987839;23;20216;-89
2022/11/02 13:03:18;;;;;;;1.73;1.27;;;;;;;19.20;70.39;99945.22;6015048;23;20212;-89
2022/11/02 13:05:52;;;;;;;2.00;1.20;;;;;;;19.15;70.93;99958.78;6014962;23;20227;-88
2022/11/02 13:08:37;;;;;;;1.63;1.00;;;;;;;19.05;71.48;99949.78;5991091;23;20601;-88
2022/11/02 13:11:11;;;;;;;3.07;1.47;;;;;;;18.79;71.45;99944.28;5991197;23;20211;-87
2022/11/02 13:13:48;;;;;;;2.37;1.30;;;;;;;18.77;71.25;99941.00;6038718;23;20727;-88
2022/11/02 13:16:16;;;;;;;2.63;1.20;;;;;;;19.00;71.65;99937.00;5990345;23;20218;-87
2022/11/02 13:18:49;;;;;;;2.53;1.13;;;;;;;19.05;69.26;99936.19;6014404;23;20203;-87
2022/11/02 13:21:21;;;;;;;2.50;1.43;;;;;;;19.16;69.20;99938.69;6014183;23;20216;-88
2022/11/02 13:23:51;;;;;;;1.83;1.60;;;;;;;19.16;69.37;99937.88;6013919;23;20264;-86
2022/11/02 13:26:28;;;;;;;2.37;1.33;;;;;;;19.07;68.34;99934.88;6013632;23;20863;-88
2022/11/02 13:29:06;;;;;;;3.37;1.57;;;;;;;19.10;69.17;99947.91;5991005;23;20267;-89
2022/11/02 13:31:39;;;;;;;2.20;1.33;;;;;;;19.03;70.05;99944.63;5991051;23;20216;-87
2022/11/02 13:34:11;;;;;;;1.77;1.20;;;;;;;19.05;69.48;99931.59;5967168;23;20255;-87
2022/11/02 13:36:38;;;;;;;1.97;1.30;;;;;;;19.01;69.07;99938.66;5991091;23;20643;-88
2022/11/02 13:39:07;;;;;;;2.73;1.17;;;;;;;18.88;69.80;99941.88;5990531;23;20555;-88
2022/11/02 13:41:37;;;;;;;3.03;1.70;;;;;;;19.00;68.82;99937.00;5990822;23;20210;-86
2022/11/02 13:44:13;;;;;;;3.33;1.33;;;;;;;19.07;67.93;99939.47;6013339;23;20215;-86
2022/11/02 13:46:58;;;;;;;2.43;1.30;;;;;;;18.97;68.54;99934.00;5990137;23;20641;-86
2022/11/02 13:49:28;;;;;;;3.27;1.40;;;;;;;18.96;65.44;99933.19;6039053;23;20546;-87
2022/11/02 13:52:03;;;;;;;1.60;1.13;;;;;;;18.75;65.73;99939.66;6038681;23;20242;-87
2022/11/02 13:54:50;;;;;;;3.80;1.10;;;;;;;18.73;64.46;99934.47;6013256;23;20219;-87
2022/11/02 13:57:33;;;;;;;2.37;1.10;;;;;;;18.83;62.50;99948.09;6014109;23;20215;-88
2022/11/02 14:00:02;;;;;;;1.40;1.00;;;;;;;18.61;62.50;99946.66;5990339;23;20316;-88
2022/11/02 14:02:34;;;;;;;1.73;1.10;;;;;;;18.66;62.09;99942.06;6013251;23;20238;-88
2022/11/02 14:05:01;;;;;;;1.87;1.07;;;;;;;18.48;62.03;99948.72;6013861;23;20211;-89
2022/11/02 14:07:38;;;;;;;1.30;1.00;;;;;;;18.47;62.84;99955.25;6014589;23;20229;-87
2022/11/02 14:10:14;;;;;;;1.67;0.80;;;;;;;18.49;61.94;99947.63;6013604;23;20218;-88
2022/11/02 14:12:42;;;;;;;2.13;1.00;;;;;;;18.56;61.47;99952.88;6014024;23;20209;-88
2022/11/02 14:15:12;;;;;;;2.50;1.10;;;;;;;18.42;61.02;99949.78;6013918;23;20214;-88
2022/11/02 14:17:55;;;;;;;2.80;1.00;;;;;;;18.33;60.60;99947.81;6014174;23;20215;-88
2022/11/02 14:20:31;;;;;;;2.87;1.10;;;;;;;18.38;60.35;99945.13;5990737;23;20217;-88
2022/11/02 14:23:10;;;;;;;2.27;0.90;;;;;;;18.36;60.19;99934.53;5990831;23;20217;-89
2022/11/02 14:25:48;;;;;;;2.93;1.10;;;;;;;18.32;60.30;99936.16;5990788;23;20239;-88
2022/11/02 14:28:24;;;;;;;2.20;0.93;;;;;;;18.26;61.46;99934.47;6013544;23;20541;-88
2022/11/02 14:31:03;;;;;;;2.07;0.90;;;;;;;18.38;61.14;99932.38;6014196;23;20213;-89
2022/11/02 14:33:48;;;;;;;3.37;1.10;;;;;;;18.19;61.91;99941.22;6039035;23;20218;-88
2022/11/02 14:36:14;;;;;;;2.37;1.00;;;;;;;18.17;61.31;99937.94;6038427;23;20217;-89
2022/11/02 14:39:02;;;;;;;3.40;0.93;;;;;;;18.11;61.19;99947.94;6013929;23;20257;-89
2022/11/02 14:41:41;;;;;;;3.63;1.10;;;;;;;17.93;62.26;99926.66;6014403;23;20309;-88
2022/11/02 14:44:45;;;;;;;2.63;1.10;;;;;;;17.81;62.42;99939.59;5989808;23;20209;-88
2022/11/02 14:47:14;;;;;;;1.63;0.70;;;;;;;17.59;62.65;99943.19;6013499;23;20209;-88
2022/11/02 14:49:56;;;;;;;2.80;1.20;;;;;;;17.54;62.65;99947.75;5990391;23;20217;-88
2022/11/02 14:52:31;;;;;;;1.80;0.90;;;;;;;17.55;62.57;99946.66;6013276;23;20264;-87
2022/11/02 14:54:59;;;;;;;1.40;1.10;;;;;;;17.49;62.62;99948.53;5978557;23;20290;-87
2022/11/02 14:57:33;;;;;;;3.03;1.10;;;;;;;17.48;62.55;99948.78;5985035;23;20731;-87
2022/11/02 15:00:22;;;;;;;2.97;1.00;;;;;;;17.22;63.61;99955.03;5985564;23;20227;-88
2022/11/02 15:02:49;;;;;;;2.17;0.90;;;;;;;17.16;63.64;99949.53;5985660;23;20210;-88
2022/11/02 15:05:29;;;;;;;1.43;0.70;;;;;;;17.15;63.03;99952.50;5985254;23;20215;-87
2022/11/02 15:08:00;;;;;;;2.87;1.20;;;;;;;16.98;64.16;99949.88;5985555;23;20224;-88
2022/11/02 15:10:30;;;;;;;2.63;1.23;;;;;;;16.98;63.96;99947.16;5984821;23;20206;-88
2022/11/02 15:13:30;;;;;;;2.33;1.10;;;;;;;16.82;64.04;99961.59;5985175;23;20322;-86
2022/11/02 15:15:57;;;;;;;2.90;1.00;;;;;;;16.78;64.37;99971.28;5936353;23;20245;-87
2022/11/02 15:18:29;;;;;;;3.03;0.90;;;;;;;16.65;64.88;99967.09;5986360;23;20210;-87
2022/11/02 15:21:11;;;;;;;3.10;1.00;;;;;;;16.48;65.31;99970.84;6011912;23;20210;-87
2022/11/02 15:23:44;;;;;;;1.67;0.80;;;;;;;16.60;65.39;99977.00;6011661;23;20308;-87
2022/11/02 15:26:23;;;;;;;2.53;1.17;;;;;;;16.42;65.86;99979.97;5986768;23;20659;-89
2022/11/02 15:28:50;;;;;;;2.57;1.03;;;;;;;16.31;66.36;99979.00;6011654;23;20278;-88
2022/11/02 15:31:19;;;;;;;1.60;1.00;;;;;;;16.09;67.34;100003.28;5987122;23;20209;-88
2022/11/02 15:33:59;;;;;;;2.90;1.20;;;;;;;16.11;68.00;99995.72;6010540;23;20212;-87